createdAt,value
2023-10-09T00:02:15.262Z,1.33
2023-10-09T00:04:44.174Z,0.77
2023-10-09T00:07:12.680Z,0.90
2023-10-09T00:09:49.545Z,0.90
2023-10-09T00:12:25.336Z,0.80
2023-10-09T00:14:56.560Z,0.70
2023-10-09T00:17:24.757Z,1.05
2023-10-09T00:19:52.812Z,0.60
2023-10-09T00:22:26.352Z,0.80
2023-10-09T00:25:13.011Z,1.23
2023-10-09T00:27:44.350Z,0.80
2023-10-09T00:30:16.634Z,0.75
2023-10-09T00:32:51.856Z,1.13
2023-10-09T00:35:37.814Z,0.93
2023-10-09T00:38:16.682Z,0.80
2023-10-09T00:40:57.396Z,0.85
2023-10-09T00:46:18.816Z,0.70
2023-10-09T00:48:49.095Z,0.82
2023-10-09T00:51:17.869Z,0.73
2023-10-09T00:53:52.896Z,1.25
2023-10-09T00:56:29.828Z,0.80
2023-10-09T00:59:07.755Z,0.85
2023-10-09T01:01:40.164Z,1.20
2023-10-09T01:04:33.277Z,0.82
2023-10-09T01:07:26.331Z,0.77
2023-10-09T01:09:55.629Z,0.70
2023-10-09T01:12:22.597Z,0.68
2023-10-09T01:14:57.020Z,0.75
2023-10-09T01:17:36.953Z,0.80
2023-10-09T01:20:06.109Z,0.70
2023-10-09T01:22:32.831Z,0.85
2023-10-09T01:24:59.529Z,0.82
2023-10-09T01:27:33.718Z,0.90
2023-10-09T01:30:01.575Z,0.82
2023-10-09T01:32:28.467Z,0.70
2023-10-09T01:34:55.432Z,0.80
2023-10-09T01:37:31.867Z,1.00
2023-10-09T01:40:01.412Z,0.98
2023-10-09T01:42:30.926Z,1.00
2023-10-09T01:45:11.711Z,0.95
2023-10-09T01:47:39.179Z,0.95
2023-10-09T01:50:12.402Z,0.80
2023-10-09T01:52:39.865Z,0.80
2023-10-09T01:55:24.629Z,0.80
2023-10-09T01:57:52.061Z,1.08
2023-10-09T02:00:24.532Z,0.80
2023-10-09T02:02:51.490Z,0.70
2023-10-09T02:05:18.282Z,0.95
2023-10-09T02:07:45.612Z,0.88
2023-10-09T02:10:32.750Z,1.00
2023-10-09T02:13:08.720Z,0.80
2023-10-09T02:15:47.143Z,1.10
2023-10-09T02:18:24.885Z,1.20
2023-10-09T02:21:00.638Z,0.90
2023-10-09T02:23:51.552Z,1.15
2023-10-09T02:26:27.284Z,0.90
2023-10-09T02:29:05.366Z,0.95
2023-10-09T02:31:41.735Z,1.02
2023-10-09T02:34:12.481Z,1.17
2023-10-09T02:39:40.693Z,1.33
2023-10-09T02:42:10.197Z,1.02
2023-10-09T02:44:41.603Z,1.20
2023-10-09T02:47:19.219Z,0.98
2023-10-09T02:49:49.246Z,1.77
2023-10-09T02:52:19.827Z,1.23
2023-10-09T02:54:51.842Z,1.20
2023-10-09T02:57:25.124Z,1.10
2023-10-09T02:59:55.035Z,1.00
2023-10-09T03:02:21.777Z,1.02
2023-10-09T03:04:48.505Z,1.20
2023-10-09T03:07:15.907Z,1.10
2023-10-09T03:09:42.593Z,1.20
2023-10-09T03:12:14.323Z,1.10
2023-10-09T03:14:42.672Z,1.20
2023-10-09T03:17:13.279Z,1.02
2023-10-09T03:19:40.942Z,1.50
2023-10-09T03:22:12.132Z,1.48
2023-10-09T03:24:45.025Z,1.35
2023-10-09T03:27:15.069Z,1.40
2023-10-09T03:29:49.968Z,1.58
2023-10-09T03:32:17.072Z,1.70
2023-10-09T03:34:44.843Z,1.27
2023-10-09T03:37:22.258Z,1.45
2023-10-09T03:39:49.773Z,1.33
2023-10-09T03:42:23.781Z,1.52
2023-10-09T03:44:54.598Z,1.38
2023-10-09T03:47:25.651Z,1.60
2023-10-09T03:49:55.004Z,1.52
2023-10-09T03:52:26.710Z,1.70
2023-10-09T03:54:53.916Z,2.10
2023-10-09T03:57:21.099Z,1.42
2023-10-09T03:59:48.137Z,1.58
2023-10-09T04:02:17.565Z,1.67
2023-10-09T04:04:48.375Z,1.77
2023-10-09T04:07:17.852Z,1.75
2023-10-09T04:09:55.228Z,1.90
2023-10-09T04:12:22.522Z,1.55
2023-10-09T04:15:07.935Z,1.73
2023-10-09T04:17:35.454Z,1.60
2023-10-09T04:20:19.351Z,1.77
2023-10-09T04:22:52.692Z,1.60
2023-10-09T04:25:30.486Z,1.73
2023-10-09T04:28:11.024Z,1.60
2023-10-09T04:30:41.851Z,1.67
2023-10-09T04:36:13.890Z,1.90
2023-10-09T04:38:54.029Z,1.80
2023-10-09T04:41:28.768Z,2.05
2023-10-09T04:44:05.396Z,2.13
2023-10-09T04:46:45.006Z,2.15
2023-10-09T04:49:28.725Z,2.33
2023-10-09T04:52:10.523Z,2.08
2023-10-09T04:55:02.992Z,2.10
2023-10-09T04:57:30.391Z,2.17
2023-10-09T04:59:59.883Z,2.45
2023-10-09T05:02:37.258Z,2.05
2023-10-09T05:05:24.654Z,2.25
2023-10-09T05:07:55.959Z,2.42
2023-10-09T05:10:26.405Z,2.70
2023-10-09T05:12:59.100Z,2.58
2023-10-09T05:15:30.939Z,2.70
2023-10-09T05:17:57.881Z,2.85
2023-10-09T05:20:27.855Z,2.58
2023-10-09T05:23:20.923Z,3.35
2023-10-09T05:26:16.174Z,2.75
2023-10-09T05:28:53.830Z,2.80
2023-10-09T05:31:39.131Z,2.95
2023-10-09T05:34:07.937Z,2.80
2023-10-09T05:36:36.503Z,2.67
2023-10-09T05:39:22.255Z,2.65
2023-10-09T05:42:09.426Z,2.90
2023-10-09T05:44:54.515Z,2.90
2023-10-09T05:47:30.339Z,2.90
2023-10-09T05:50:22.792Z,3.13
2023-10-09T05:52:53.025Z,2.97
2023-10-09T05:55:25.178Z,2.85
2023-10-09T05:57:56.405Z,3.05
2023-10-09T06:00:42.710Z,3.42
2023-10-09T06:03:21.730Z,3.53
2023-10-09T06:06:02.077Z,3.75
2023-10-09T06:08:43.072Z,3.85
2023-10-09T06:11:33.128Z,3.53
2023-10-09T06:14:10.505Z,3.20
2023-10-09T06:16:41.029Z,3.45
2023-10-09T06:19:13.838Z,3.53
2023-10-09T06:22:01.039Z,3.53
2023-10-09T06:24:34.751Z,3.70
2023-10-09T06:27:01.585Z,3.70
2023-10-09T06:29:37.931Z,3.33
2023-10-09T06:32:17.983Z,3.67
2023-10-09T06:34:52.963Z,3.88
2023-10-09T06:37:26.389Z,3.88
2023-10-09T06:39:57.010Z,3.80
2023-10-09T06:45:29.508Z,3.45
2023-10-09T06:48:21.108Z,3.92
2023-10-09T06:50:56.841Z,4.72
2023-10-09T06:53:29.283Z,3.55
2023-10-09T06:56:06.817Z,3.88
2023-10-09T06:58:42.942Z,4.28
2023-10-09T07:01:28.573Z,3.50
2023-10-09T07:04:11.694Z,3.90
2023-10-09T07:06:38.918Z,3.97
2023-10-09T07:09:05.806Z,3.65
2023-10-09T07:11:43.704Z,4.43
2023-10-09T07:14:33.496Z,3.97
2023-10-09T07:17:05.457Z,4.13
2023-10-09T07:19:35.556Z,3.63
2023-10-09T07:22:05.811Z,3.88
2023-10-09T07:24:44.873Z,4.18
2023-10-09T07:27:15.375Z,4.35
2023-10-09T07:29:51.706Z,4.28
2023-10-09T07:32:22.303Z,3.85
2023-10-09T07:37:31.689Z,4.20
2023-10-09T07:39:58.733Z,3.75
2023-10-09T07:42:38.398Z,4.55
2023-10-09T07:45:20.551Z,4.18
2023-10-09T07:48:07.041Z,4.00
2023-10-09T07:51:04.235Z,4.30
2023-10-09T07:53:44.268Z,4.10
2023-10-09T07:56:14.944Z,4.30
2023-10-09T08:01:23.662Z,3.90
2023-10-09T08:04:03.737Z,4.20
2023-10-09T08:06:39.351Z,4.22
2023-10-09T08:09:20.583Z,4.28
2023-10-09T08:12:09.196Z,3.60
2023-10-09T08:14:35.914Z,3.95
2023-10-09T08:17:20.581Z,3.90
2023-10-09T08:19:55.299Z,4.00
2023-10-09T08:22:31.587Z,4.22
2023-10-09T08:24:58.638Z,3.97
2023-10-09T08:27:32.623Z,4.38
2023-10-09T08:30:19.345Z,4.13
2023-10-09T08:35:47.642Z,4.35
2023-10-09T08:38:15.825Z,4.30
2023-10-09T08:40:44.275Z,4.32
2023-10-09T08:43:15.792Z,4.38
2023-10-09T08:45:47.835Z,4.07
2023-10-09T08:48:18.827Z,3.88
2023-10-09T08:50:47.960Z,3.78
2023-10-09T08:53:17.395Z,3.70
2023-10-09T08:55:45.090Z,4.10
2023-10-09T08:58:18.423Z,3.83
2023-10-09T09:00:47.214Z,3.72
2023-10-09T09:03:18.621Z,3.88
2023-10-09T09:05:50.972Z,4.20
2023-10-09T09:08:26.439Z,3.55
2023-10-09T09:11:13.431Z,3.30
2023-10-09T09:13:50.304Z,3.42
2023-10-09T09:16:22.750Z,4.00
2023-10-09T09:19:11.933Z,4.28
2023-10-09T09:21:50.038Z,3.67
2023-10-09T09:24:28.183Z,4.15
2023-10-09T09:27:00.348Z,4.10
2023-10-09T09:29:37.737Z,4.03
2023-10-09T09:32:21.868Z,4.30
2023-10-09T09:34:55.869Z,4.38
2023-10-09T09:37:31.026Z,4.30
2023-10-09T09:40:12.119Z,4.28
2023-10-09T09:42:42.241Z,5.20
2023-10-09T09:45:12.387Z,4.20
2023-10-09T09:47:39.179Z,4.32
2023-10-09T09:50:23.625Z,4.43
2023-10-09T09:52:54.959Z,4.43
2023-10-09T09:55:32.091Z,4.18
2023-10-09T09:57:59.709Z,4.57
2023-10-09T10:00:42.482Z,4.40
2023-10-09T10:03:13.856Z,4.15
2023-10-09T10:05:43.601Z,4.63
2023-10-09T10:08:14.889Z,3.63
2023-10-09T10:10:53.874Z,4.00
2023-10-09T10:13:43.214Z,4.32
2023-10-09T10:16:20.339Z,4.20
2023-10-09T10:19:27.017Z,4.25
2023-10-09T10:21:54.062Z,3.92
2023-10-09T10:24:29.750Z,3.85
2023-10-09T10:27:32.820Z,3.42
2023-10-09T10:30:12.196Z,3.72
2023-10-09T10:32:59.002Z,3.92
2023-10-09T10:35:40.873Z,3.38
2023-10-09T10:38:37.641Z,3.10
2023-10-09T10:41:18.112Z,2.80
2023-10-09T10:43:49.234Z,3.15
2023-10-09T10:46:25.615Z,3.70
2023-10-09T10:49:00.632Z,3.15
2023-10-09T10:51:38.877Z,3.13
2023-10-09T10:54:26.110Z,3.05
2023-10-09T10:56:53.195Z,3.10
2023-10-09T10:59:30.357Z,3.17
2023-10-09T11:02:00.988Z,3.60
2023-10-09T11:04:35.136Z,3.53
2023-10-09T11:07:22.507Z,3.47
2023-10-09T11:10:06.997Z,3.58
2023-10-09T11:12:54.450Z,3.72
2023-10-09T11:15:45.503Z,3.80
2023-10-09T11:18:21.279Z,3.60
2023-10-09T11:21:05.111Z,3.67
2023-10-09T11:23:35.734Z,4.53
2023-10-09T11:26:26.882Z,4.25
2023-10-09T11:29:32.384Z,3.95
2023-10-09T11:32:19.222Z,4.18
2023-10-09T11:34:53.594Z,3.60
2023-10-09T11:37:31.052Z,4.05
2023-10-09T11:40:01.484Z,3.80
2023-10-09T11:43:01.734Z,4.47
2023-10-09T11:45:38.838Z,4.07
2023-10-09T11:48:25.823Z,3.92
2023-10-09T11:50:54.198Z,3.85
2023-10-09T11:53:41.365Z,3.70
2023-10-09T11:56:13.401Z,3.38
2023-10-09T11:58:41.857Z,3.97
2023-10-09T12:01:23.878Z,3.47
2023-10-09T12:03:52.298Z,3.60
2023-10-09T12:06:23.601Z,3.22
2023-10-09T12:08:50.831Z,3.88
2023-10-09T12:11:25.025Z,3.95
2023-10-09T12:13:57.536Z,4.05
2023-10-09T12:16:29.600Z,3.55
2023-10-09T12:18:56.927Z,3.92
2023-10-09T12:21:24.680Z,3.97
2023-10-09T12:23:51.691Z,4.18
2023-10-09T12:26:18.432Z,3.80
2023-10-09T12:28:47.159Z,3.13
2023-10-09T12:31:21.233Z,2.60
2023-10-09T12:33:48.804Z,2.80
2023-10-09T12:36:21.850Z,2.80
2023-10-09T12:38:54.395Z,2.65
2023-10-09T12:41:27.767Z,2.42
2023-10-09T12:43:55.940Z,2.53
2023-10-09T12:46:26.861Z,2.78
2023-10-09T12:48:55.652Z,2.70
2023-10-09T12:51:30.938Z,2.50
2023-10-09T12:53:58.431Z,2.97
2023-10-09T12:56:44.238Z,2.53
2023-10-09T12:59:16.388Z,2.58
2023-10-09T13:01:46.245Z,2.70
2023-10-09T13:04:17.243Z,2.78
2023-10-09T13:06:45.472Z,3.33
2023-10-09T13:09:16.664Z,3.05
2023-10-09T13:11:44.648Z,2.95
2023-10-09T13:14:24.042Z,2.83
2023-10-09T13:16:54.335Z,3.15
2023-10-09T13:19:25.391Z,3.08
2023-10-09T13:21:52.399Z,2.97
2023-10-09T13:24:21.593Z,3.28
2023-10-09T13:26:52.514Z,3.00
2023-10-09T13:29:25.768Z,3.20
2023-10-09T13:31:59.036Z,2.55
2023-10-09T13:34:29.447Z,2.95
2023-10-09T13:36:59.711Z,3.05
2023-10-09T13:39:27.532Z,2.72
2023-10-09T13:41:59.382Z,2.67
2023-10-09T13:44:31.139Z,2.65
2023-10-09T13:46:59.768Z,2.58
2023-10-09T13:49:32.961Z,3.00
2023-10-09T13:52:02.834Z,3.15
2023-10-09T13:54:33.989Z,2.92
2023-10-09T13:59:36.563Z,2.78
2023-10-09T14:02:10.374Z,2.92
2023-10-09T14:04:37.875Z,2.90
2023-10-09T14:07:06.924Z,3.00
2023-10-09T14:09:40.009Z,3.10
2023-10-09T14:12:08.192Z,2.85
2023-10-09T14:14:41.782Z,3.05
2023-10-09T14:17:14.720Z,2.95
2023-10-09T14:19:52.126Z,3.17
2023-10-09T14:22:27.704Z,3.15
2023-10-09T14:24:59.633Z,3.70
2023-10-09T14:27:30.813Z,3.13
2023-10-09T14:30:00.880Z,3.42
2023-10-09T14:32:35.934Z,3.08
2023-10-09T14:35:03.165Z,3.60
2023-10-09T14:37:30.209Z,3.42
2023-10-09T14:39:59.689Z,3.50
2023-10-09T14:42:28.875Z,3.13
2023-10-09T14:44:56.978Z,3.50
2023-10-09T14:47:24.129Z,3.28
2023-10-09T14:49:51.327Z,3.20
2023-10-09T14:52:18.379Z,3.00
2023-10-09T14:54:48.458Z,2.53
2023-10-09T14:57:16.295Z,2.53
2023-10-09T14:59:47.333Z,2.65
2023-10-09T15:02:14.452Z,2.58
2023-10-09T15:04:41.454Z,2.83
2023-10-09T15:07:08.662Z,2.40
2023-10-09T15:09:37.730Z,2.50
2023-10-09T15:12:08.379Z,2.67
2023-10-09T15:14:35.485Z,2.30
2023-10-09T15:17:03.485Z,2.50
2023-10-09T15:19:33.347Z,1.70
2023-10-09T15:22:00.686Z,1.98
2023-10-09T15:24:31.452Z,1.65
2023-10-09T15:26:58.652Z,1.40
2023-10-09T15:29:31.668Z,1.30
2023-10-09T15:32:15.813Z,1.38
2023-10-09T15:34:42.626Z,1.48
2023-10-09T15:37:09.280Z,1.63
2023-10-09T15:39:38.760Z,1.83
2023-10-09T15:42:07.483Z,1.42
2023-10-09T15:44:37.763Z,1.55
2023-10-09T15:49:42.500Z,1.65
2023-10-09T15:52:10.208Z,1.98
2023-10-09T15:54:37.985Z,1.50
2023-10-09T15:57:13.070Z,1.00
2023-10-09T15:59:40.620Z,1.33
2023-10-09T16:02:07.378Z,1.10
2023-10-09T16:04:35.145Z,0.70
2023-10-09T16:07:02.587Z,1.15
2023-10-09T16:09:30.751Z,0.80
2023-10-09T16:11:57.468Z,0.90
2023-10-09T16:14:24.620Z,0.95
2023-10-09T16:16:51.606Z,0.80
2023-10-09T16:19:18.766Z,0.90
2023-10-09T16:21:45.682Z,0.93
2023-10-09T16:24:13.467Z,0.93
2023-10-09T16:26:46.506Z,1.20
2023-10-09T16:29:13.654Z,0.90
2023-10-09T16:31:41.936Z,1.00
2023-10-09T16:34:09.699Z,1.20
2023-10-09T16:36:37.785Z,1.02
2023-10-09T16:39:04.948Z,1.40
2023-10-09T16:41:36.039Z,0.80
2023-10-09T16:44:06.231Z,1.13
2023-10-09T16:46:33.011Z,1.33
2023-10-09T16:49:05.407Z,1.35
2023-10-09T16:51:32.180Z,2.00
2023-10-09T16:53:59.982Z,1.58
2023-10-09T16:56:32.648Z,1.50
2023-10-09T16:59:01.515Z,1.60
2023-10-09T17:01:28.964Z,1.55
2023-10-09T17:03:58.940Z,1.77
2023-10-09T17:06:30.328Z,1.85
2023-10-09T17:08:58.157Z,1.70
2023-10-09T17:11:25.827Z,1.88
2023-10-09T17:13:55.768Z,2.35
2023-10-09T17:16:25.223Z,1.80
2023-10-09T17:18:57.219Z,2.53
2023-10-09T17:21:24.824Z,2.47
2023-10-09T17:23:54.843Z,2.35
2023-10-09T17:26:24.684Z,2.20
2023-10-09T17:28:55.325Z,2.10
2023-10-09T17:31:27.669Z,2.67
2023-10-09T17:33:58.369Z,2.42
2023-10-09T17:36:27.358Z,2.75
2023-10-09T17:38:55.012Z,2.92
2023-10-09T17:41:25.145Z,2.90
2023-10-09T17:43:52.094Z,2.70
2023-10-09T17:46:19.276Z,3.10
2023-10-09T17:48:46.494Z,3.17
2023-10-09T17:51:13.276Z,2.75
2023-10-09T17:53:41.047Z,2.90
2023-10-09T17:56:09.749Z,3.53
2023-10-09T17:58:36.713Z,3.58
2023-10-09T18:01:07.519Z,3.28
2023-10-09T18:03:35.007Z,3.00
2023-10-09T18:06:01.674Z,3.00
2023-10-09T18:08:28.456Z,2.72
2023-10-09T18:11:00.767Z,3.00
2023-10-09T18:13:27.872Z,2.40
2023-10-09T18:16:09.009Z,2.83
2023-10-09T18:18:37.601Z,2.70
2023-10-09T18:21:06.989Z,2.45
2023-10-09T18:23:34.401Z,2.58
2023-10-09T18:26:02.488Z,2.85
2023-10-09T18:28:29.826Z,3.03
2023-10-09T18:30:56.630Z,2.80
2023-10-09T18:33:24.295Z,3.45
2023-10-09T18:35:51.222Z,3.42
2023-10-09T18:38:17.922Z,3.28
2023-10-09T18:40:53.396Z,3.97
2023-10-09T18:43:20.792Z,3.95
2023-10-09T18:45:47.560Z,4.30
2023-10-09T18:48:19.257Z,4.70
2023-10-09T18:50:46.198Z,4.32
2023-10-09T18:53:14.217Z,4.65
2023-10-09T18:55:41.577Z,4.70
2023-10-09T18:58:10.994Z,4.80
2023-10-09T19:00:42.199Z,4.45
2023-10-09T19:03:11.791Z,4.60
2023-10-09T19:05:43.417Z,5.18
2023-10-09T19:08:10.177Z,5.00
2023-10-09T19:10:38.361Z,5.30
2023-10-09T19:13:11.207Z,5.00
2023-10-09T19:15:38.600Z,5.50
2023-10-09T19:18:06.169Z,4.82
2023-10-09T19:20:33.533Z,5.13
2023-10-09T19:23:05.036Z,4.95
2023-10-09T19:25:34.001Z,5.38
2023-10-09T19:28:00.726Z,5.10
2023-10-09T19:30:29.942Z,4.93
2023-10-09T19:32:57.183Z,5.10
2023-10-09T19:35:24.253Z,5.78
2023-10-09T19:37:51.660Z,5.68
2023-10-09T19:40:18.918Z,5.07
2023-10-09T19:42:45.600Z,5.35
2023-10-09T19:45:14.572Z,4.72
2023-10-09T19:47:41.574Z,5.00
2023-10-09T19:50:09.439Z,4.53
2023-10-09T19:52:36.106Z,5.07
2023-10-09T19:55:02.783Z,5.57
2023-10-09T19:57:32.282Z,5.25
2023-10-09T19:59:58.937Z,5.35
2023-10-09T20:02:26.046Z,5.20
2023-10-09T20:04:52.845Z,5.28
2023-10-09T20:07:19.549Z,5.00
2023-10-09T20:09:46.809Z,5.90
2023-10-09T20:12:16.863Z,5.45
2023-10-09T20:14:43.970Z,5.55
2023-10-09T20:17:12.462Z,5.72
2023-10-09T20:19:43.769Z,5.72
2023-10-09T20:22:12.578Z,6.00
2023-10-09T20:24:39.628Z,5.80
2023-10-09T20:27:06.528Z,5.30
2023-10-09T20:29:36.397Z,6.47
2023-10-09T20:32:06.864Z,6.38
2023-10-09T20:37:04.012Z,6.20
2023-10-09T20:39:30.875Z,5.88
2023-10-09T20:41:57.539Z,5.40
2023-10-09T20:44:25.060Z,6.65
2023-10-09T20:46:54.986Z,5.72
2023-10-09T20:49:21.816Z,5.17
2023-10-09T20:51:57.147Z,5.38
2023-10-09T20:54:26.389Z,5.90
2023-10-09T20:56:53.099Z,5.35
2023-10-09T20:59:19.947Z,5.10
2023-10-09T21:01:46.815Z,5.35
2023-10-09T21:04:13.611Z,5.05
2023-10-09T21:06:41.230Z,5.18
2023-10-09T21:09:08.575Z,5.43
2023-10-09T21:11:35.247Z,5.70
2023-10-09T21:14:01.924Z,6.10
2023-10-09T21:16:28.712Z,5.47
2023-10-09T21:18:56.937Z,5.35
2023-10-09T21:21:24.816Z,5.78
2023-10-09T21:23:51.638Z,5.45
2023-10-09T21:26:23.476Z,4.97
2023-10-09T21:28:52.715Z,5.35
2023-10-09T21:31:21.761Z,5.53
2023-10-09T21:33:51.929Z,4.53
2023-10-09T21:36:19.155Z,4.68
2023-10-09T21:38:45.879Z,4.68
2023-10-09T21:41:14.151Z,4.38
2023-10-09T21:43:41.824Z,4.70
2023-10-09T21:46:10.746Z,4.80
2023-10-09T21:48:43.858Z,5.32
2023-10-09T21:51:12.322Z,5.15
2023-10-09T21:53:40.757Z,4.90
2023-10-09T21:56:09.248Z,5.85
2023-10-09T21:58:36.103Z,5.30
2023-10-09T22:01:04.353Z,5.97
2023-10-09T22:03:31.738Z,5.80
2023-10-09T22:05:59.663Z,5.80
2023-10-09T22:08:26.890Z,5.47
2023-10-09T22:10:54.512Z,6.05
2023-10-09T22:13:22.257Z,6.50
2023-10-09T22:15:49.550Z,6.10
2023-10-09T22:18:22.427Z,6.38
2023-10-09T22:20:50.705Z,6.57
2023-10-09T22:23:20.850Z,6.93
2023-10-09T22:26:01.447Z,6.65
2023-10-09T22:31:02.377Z,7.10
2023-10-09T22:33:46.252Z,7.75
2023-10-09T22:36:15.346Z,7.40
2023-10-09T22:38:45.335Z,6.90
2023-10-09T22:41:12.051Z,7.18
2023-10-09T22:43:40.709Z,6.75
2023-10-09T22:46:08.964Z,6.88
2023-10-09T22:48:42.675Z,6.45
2023-10-09T22:51:12.520Z,7.20
2023-10-09T22:53:40.600Z,6.60
2023-10-09T22:56:14.210Z,6.00
2023-10-09T22:58:52.007Z,5.00
2023-10-09T23:01:24.709Z,3.97
2023-10-09T23:04:10.713Z,3.83
2023-10-09T23:06:41.923Z,3.08
2023-10-09T23:09:16.795Z,2.42
2023-10-09T23:11:54.951Z,2.72
2023-10-09T23:14:28.552Z,2.38
2023-10-09T23:17:02.946Z,2.47
2023-10-09T23:19:41.933Z,2.85
2023-10-09T23:22:20.977Z,2.83
2023-10-09T23:24:52.599Z,2.85
2023-10-09T23:27:44.558Z,3.30
2023-10-09T23:30:13.395Z,3.03
2023-10-09T23:32:48.445Z,3.28
2023-10-09T23:35:23.011Z,2.83
2023-10-09T23:38:10.136Z,3.50
2023-10-09T23:40:45.069Z,3.50
2023-10-09T23:43:14.683Z,3.70
2023-10-09T23:45:42.345Z,3.50
2023-10-09T23:48:16.469Z,3.38
2023-10-09T23:50:49.294Z,3.28
2023-10-09T23:53:16.213Z,2.88
2023-10-09T23:55:44.428Z,2.85
2023-10-09T23:58:19.825Z,3.20
